Throop, New York
Current Conditions -  °F | °C
As of 10:54 PM on Wednesday 28 Jan 2015 (Local Time) from KSYR Reporting Station
Clear Clear  
Wind Chill:   Ceiling: Unl
Heat Index:   Visibility: 10mi
Dew Point:   Wind: 0mph
Humidity: 80%   Direction: NA
Pressure: 30.32"   Gusts: NA
Location:  42.9235°N, 76.5525°W
Report Text: KSYR 290354Z 00000KT 10SM CLR M13/M16 A3032 RMK AO2 SLP274 T11331161 $
Loading
Personal Weather Stations






























Interactive Weather Map New forecast layout! Learn more

10-Day Weather Forecast

Advertisements
Track Severe Weather on mobile